sensor_id;sensor_type;location;lat;lon;timestamp;temperature;humidity
16347;DHT22;8283;48.504;13.734;2023-03-14T00:00:12;11.20;63.50
16347;DHT22;8283;48.504;13.734;2023-03-14T00:02:58;11.30;64.10
16347;DHT22;8283;48.504;13.734;2023-03-14T00:05:42;11.20;64.10
16347;DHT22;8283;48.504;13.734;2023-03-14T00:08:26;11.30;65.80
16347;DHT22;8283;48.504;13.734;2023-03-14T00:11:14;11.20;67.20
16347;DHT22;8283;48.504;13.734;2023-03-14T00:14:00;11.30;66.70
16347;DHT22;8283;48.504;13.734;2023-03-14T00:16:48;11.30;66.10
16347;DHT22;8283;48.504;13.734;2023-03-14T00:19:33;11.40;66.10
16347;DHT22;8283;48.504;13.734;2023-03-14T00:22:18;11.40;65.60
16347;DHT22;8283;48.504;13.734;2023-03-14T00:25:03;11.50;65.30
16347;DHT22;8283;48.504;13.734;2023-03-14T00:27:50;11.50;65.30
16347;DHT22;8283;48.504;13.734;2023-03-14T00:30:37;11.60;65.60
16347;DHT22;8283;48.504;13.734;2023-03-14T00:33:21;11.70;65.20
16347;DHT22;8283;48.504;13.734;2023-03-14T00:36:08;11.70;64.90
16347;DHT22;8283;48.504;13.734;2023-03-14T00:38:55;11.80;65.50
16347;DHT22;8283;48.504;13.734;2023-03-14T00:41:40;11.80;64.30
16347;DHT22;8283;48.504;13.734;2023-03-14T00:44:24;11.80;64.00
16347;DHT22;8283;48.504;13.734;2023-03-14T00:47:08;11.90;63.90
16347;DHT22;8283;48.504;13.734;2023-03-14T00:49:53;11.90;63.90
16347;DHT22;8283;48.504;13.734;2023-03-14T00:52:37;11.90;63.90
16347;DHT22;8283;48.504;13.734;2023-03-14T00:55:24;11.90;64.00
16347;DHT22;8283;48.504;13.734;2023-03-14T00:58:11;11.90;64.10
16347;DHT22;8283;48.504;13.734;2023-03-14T01:00:57;11.90;64.10
16347;DHT22;8283;48.504;13.734;2023-03-14T01:03:42;11.90;63.90
16347;DHT22;8283;48.504;13.734;2023-03-14T01:06:28;11.90;63.80
16347;DHT22;8283;48.504;13.734;2023-03-14T01:09:13;11.90;63.80
16347;DHT22;8283;48.504;13.734;2023-03-14T01:11:58;11.90;64.30
16347;DHT22;8283;48.504;13.734;2023-03-14T01:14:42;11.80;64.00
16347;DHT22;8283;48.504;13.734;2023-03-14T01:17:26;11.80;64.00
16347;DHT22;8283;48.504;13.734;2023-03-14T01:20:13;11.80;64.10
16347;DHT22;8283;48.504;13.734;2023-03-14T01:22:57;11.80;64.20
16347;DHT22;8283;48.504;13.734;2023-03-14T01:25:42;11.80;64.30
16347;DHT22;8283;48.504;13.734;2023-03-14T01:28:27;11.80;64.80
16347;DHT22;8283;48.504;13.734;2023-03-14T01:31:11;11.80;65.00
16347;DHT22;8283;48.504;13.734;2023-03-14T01:33:56;11.80;65.00
16347;DHT22;8283;48.504;13.734;2023-03-14T01:36:41;11.80;65.20
16347;DHT22;8283;48.504;13.734;2023-03-14T01:39:26;11.80;64.80
16347;DHT22;8283;48.504;13.734;2023-03-14T01:42:11;11.70;64.80
16347;DHT22;8283;48.504;13.734;2023-03-14T01:44:59;11.80;64.70
16347;DHT22;8283;48.504;13.734;2023-03-14T01:47:44;12.00;64.70
16347;DHT22;8283;48.504;13.734;2023-03-14T01:50:29;11.80;64.30
16347;DHT22;8283;48.504;13.734;2023-03-14T01:53:15;11.80;64.20
16347;DHT22;8283;48.504;13.734;2023-03-14T01:56:00;11.80;64.10
16347;DHT22;8283;48.504;13.734;2023-03-14T01:58:48;11.80;63.90
16347;DHT22;8283;48.504;13.734;2023-03-14T02:01:34;11.80;64.10
16347;DHT22;8283;48.504;13.734;2023-03-14T02:04:20;11.80;63.90
16347;DHT22;8283;48.504;13.734;2023-03-14T02:07:18;11.80;64.00
16347;DHT22;8283;48.504;13.734;2023-03-14T02:10:15;11.80;65.00
16347;DHT22;8283;48.504;13.734;2023-03-14T02:13:03;11.70;63.80
16347;DHT22;8283;48.504;13.734;2023-03-14T02:16:11;11.70;64.10
16347;DHT22;8283;48.504;13.734;2023-03-14T02:19:03;11.70;63.80
16347;DHT22;8283;48.504;13.734;2023-03-14T02:22:10;11.70;63.90
16347;DHT22;8283;48.504;13.734;2023-03-14T02:25:16;11.70;64.80
16347;DHT22;8283;48.504;13.734;2023-03-14T02:28:05;11.70;64.70
16347;DHT22;8283;48.504;13.734;2023-03-14T02:30:50;11.70;63.90
16347;DHT22;8283;48.504;13.734;2023-03-14T02:33:35;11.70;63.90
16347;DHT22;8283;48.504;13.734;2023-03-14T02:36:23;11.60;63.90
16347;DHT22;8283;48.504;13.734;2023-03-14T02:39:15;11.60;64.10
16347;DHT22;8283;48.504;13.734;2023-03-14T02:42:04;11.60;64.70
16347;DHT22;8283;48.504;13.734;2023-03-14T02:48:25;11.60;65.70
16347;DHT22;8283;48.504;13.734;2023-03-14T02:51:08;11.70;64.60
16347;DHT22;8283;48.504;13.734;2023-03-14T02:53:52;11.70;64.70
16347;DHT22;8283;48.504;13.734;2023-03-14T02:56:38;11.70;64.70
16347;DHT22;8283;48.504;13.734;2023-03-14T02:59:24;11.70;64.60
16347;DHT22;8283;48.504;13.734;2023-03-14T03:02:14;11.70;64.60
16347;DHT22;8283;48.504;13.734;2023-03-14T03:04:58;11.70;64.60
16347;DHT22;8283;48.504;13.734;2023-03-14T03:07:43;11.70;64.70
16347;DHT22;8283;48.504;13.734;2023-03-14T03:10:30;11.60;64.50
16347;DHT22;8283;48.504;13.734;2023-03-14T03:13:17;11.70;65.30
16347;DHT22;8283;48.504;13.734;2023-03-14T03:16:05;11.60;64.80
16347;DHT22;8283;48.504;13.734;2023-03-14T03:18:53;11.70;64.90
16347;DHT22;8283;48.504;13.734;2023-03-14T03:21:38;11.60;64.90
16347;DHT22;8283;48.504;13.734;2023-03-14T03:24:23;11.60;65.10
16347;DHT22;8283;48.504;13.734;2023-03-14T03:27:07;11.70;65.20
16347;DHT22;8283;48.504;13.734;2023-03-14T03:29:53;11.70;65.00
16347;DHT22;8283;48.504;13.734;2023-03-14T03:32:38;11.70;65.10
16347;DHT22;8283;48.504;13.734;2023-03-14T03:35:24;11.70;65.20
16347;DHT22;8283;48.504;13.734;2023-03-14T03:38:12;11.70;65.40
16347;DHT22;8283;48.504;13.734;2023-03-14T03:40:57;11.70;65.30
16347;DHT22;8283;48.504;13.734;2023-03-14T03:43:46;11.80;65.40
16347;DHT22;8283;48.504;13.734;2023-03-14T03:46:33;11.80;65.40
16347;DHT22;8283;48.504;13.734;2023-03-14T03:49:17;11.80;65.30
16347;DHT22;8283;48.504;13.734;2023-03-14T03:52:02;11.80;65.40
16347;DHT22;8283;48.504;13.734;2023-03-14T03:54:47;11.80;65.30
16347;DHT22;8283;48.504;13.734;2023-03-14T03:57:31;11.80;65.30
16347;DHT22;8283;48.504;13.734;2023-03-14T04:00:16;11.80;65.30
16347;DHT22;8283;48.504;13.734;2023-03-14T04:03:00;11.90;65.40
16347;DHT22;8283;48.504;13.734;2023-03-14T04:05:45;11.90;65.30
16347;DHT22;8283;48.504;13.734;2023-03-14T04:08:30;11.90;65.40
16347;DHT22;8283;48.504;13.734;2023-03-14T04:11:15;11.90;65.30
16347;DHT22;8283;48.504;13.734;2023-03-14T04:14:19;11.90;65.30
16347;DHT22;8283;48.504;13.734;2023-03-14T04:17:05;12.00;65.40
16347;DHT22;8283;48.504;13.734;2023-03-14T04:19:50;12.00;65.40
16347;DHT22;8283;48.504;13.734;2023-03-14T04:22:39;12.00;65.60
16347;DHT22;8283;48.504;13.734;2023-03-14T04:25:24;12.00;65.50
16347;DHT22;8283;48.504;13.734;2023-03-14T04:28:13;12.00;65.60
16347;DHT22;8283;48.504;13.734;2023-03-14T04:30:58;12.00;65.70
16347;DHT22;8283;48.504;13.734;2023-03-14T04:33:44;12.00;65.70
16347;DHT22;8283;48.504;13.734;2023-03-14T04:36:29;12.00;65.60
16347;DHT22;8283;48.504;13.734;2023-03-14T04:39:19;12.00;65.60
16347;DHT22;8283;48.504;13.734;2023-03-14T04:42:11;12.00;65.70
16347;DHT22;8283;48.504;13.734;2023-03-14T04:44:56;12.00;65.60
16347;DHT22;8283;48.504;13.734;2023-03-14T04:47:43;12.00;65.70
16347;DHT22;8283;48.504;13.734;2023-03-14T04:50:32;12.00;65.90
16347;DHT22;8283;48.504;13.734;2023-03-14T04:53:18;12.00;65.80
16347;DHT22;8283;48.504;13.734;2023-03-14T04:56:04;12.00;65.70
16347;DHT22;8283;48.504;13.734;2023-03-14T04:58:55;12.00;65.70
16347;DHT22;8283;48.504;13.734;2023-03-14T05:01:39;12.00;65.70
16347;DHT22;8283;48.504;13.734;2023-03-14T05:04:42;12.00;65.70
16347;DHT22;8283;48.504;13.734;2023-03-14T05:07:42;12.50;66.10
16347;DHT22;8283;48.504;13.734;2023-03-14T05:10:54;12.00;65.80
16347;DHT22;8283;48.504;13.734;2023-03-14T05:14:02;12.00;66.30
16347;DHT22;8283;48.504;13.734;2023-03-14T05:17:16;12.00;65.80
16347;DHT22;8283;48.504;13.734;2023-03-14T05:20:23;12.00;65.90
16347;DHT22;8283;48.504;13.734;2023-03-14T05:23:17;12.00;66.10
16347;DHT22;8283;48.504;13.734;2023-03-14T05:26:26;12.00;66.00
16347;DHT22;8283;48.504;13.734;2023-03-14T05:29:18;12.00;66.10
16347;DHT22;8283;48.504;13.734;2023-03-14T05:32:21;12.00;66.10
16347;DHT22;8283;48.504;13.734;2023-03-14T05:35:24;12.00;66.10
16347;DHT22;8283;48.504;13.734;2023-03-14T05:38:20;12.00;66.10
16347;DHT22;8283;48.504;13.734;2023-03-14T05:41:22;12.00;66.10
16347;DHT22;8283;48.504;13.734;2023-03-14T05:44:22;12.00;66.00
16347;DHT22;8283;48.504;13.734;2023-03-14T05:47:12;12.00;66.00
16347;DHT22;8283;48.504;13.734;2023-03-14T05:50:23;12.00;66.00
16347;DHT22;8283;48.504;13.734;2023-03-14T05:53:20;12.00;66.00
16347;DHT22;8283;48.504;13.734;2023-03-14T05:56:13;12.00;65.90
16347;DHT22;8283;48.504;13.734;2023-03-14T05:59:09;12.00;66.00
16347;DHT22;8283;48.504;13.734;2023-03-14T06:02:01;12.00;66.30
16347;DHT22;8283;48.504;13.734;2023-03-14T06:04:52;12.20;66.50
16347;DHT22;8283;48.504;13.734;2023-03-14T06:07:37;12.00;66.50
16347;DHT22;8283;48.504;13.734;2023-03-14T06:10:23;12.00;66.70
16347;DHT22;8283;48.504;13.734;2023-03-14T06:13:08;12.00;66.70
16347;DHT22;8283;48.504;13.734;2023-03-14T06:15:53;12.00;66.80
16347;DHT22;8283;48.504;13.734;2023-03-14T06:18:37;12.00;66.80
16347;DHT22;8283;48.504;13.734;2023-03-14T06:21:25;12.10;67.00
16347;DHT22;8283;48.504;13.734;2023-03-14T06:24:09;12.10;67.20
16347;DHT22;8283;48.504;13.734;2023-03-14T06:26:59;12.10;67.20
16347;DHT22;8283;48.504;13.734;2023-03-14T06:29:44;12.10;67.20
16347;DHT22;8283;48.504;13.734;2023-03-14T06:32:28;12.20;67.30
16347;DHT22;8283;48.504;13.734;2023-03-14T06:35:17;12.20;67.30
16347;DHT22;8283;48.504;13.734;2023-03-14T06:38:02;12.20;67.30
16347;DHT22;8283;48.504;13.734;2023-03-14T06:40:47;12.30;67.40
16347;DHT22;8283;48.504;13.734;2023-03-14T06:43:35;12.30;67.50
16347;DHT22;8283;48.504;13.734;2023-03-14T06:46:20;12.30;67.60
16347;DHT22;8283;48.504;13.734;2023-03-14T06:49:05;12.40;67.80
16347;DHT22;8283;48.504;13.734;2023-03-14T06:51:51;12.40;67.80
16347;DHT22;8283;48.504;13.734;2023-03-14T06:54:36;12.40;67.80
16347;DHT22;8283;48.504;13.734;2023-03-14T06:57:20;12.50;67.80
16347;DHT22;8283;48.504;13.734;2023-03-14T07:00:05;12.50;67.90
16347;DHT22;8283;48.504;13.734;2023-03-14T07:02:51;12.60;68.00
16347;DHT22;8283;48.504;13.734;2023-03-14T07:05:48;12.60;68.00
16347;DHT22;8283;48.504;13.734;2023-03-14T07:08:32;12.60;68.10
16347;DHT22;8283;48.504;13.734;2023-03-14T07:11:19;12.70;68.20
16347;DHT22;8283;48.504;13.734;2023-03-14T07:14:04;12.70;68.20
16347;DHT22;8283;48.504;13.734;2023-03-14T07:16:49;12.80;68.40
16347;DHT22;8283;48.504;13.734;2023-03-14T07:19:34;12.80;68.60
16347;DHT22;8283;48.504;13.734;2023-03-14T07:22:18;12.80;68.70
16347;DHT22;8283;48.504;13.734;2023-03-14T07:25:04;12.90;68.70
16347;DHT22;8283;48.504;13.734;2023-03-14T07:27:50;13.00;69.00
16347;DHT22;8283;48.504;13.734;2023-03-14T07:30:35;13.00;68.80
16347;DHT22;8283;48.504;13.734;2023-03-14T07:33:23;13.00;68.50
16347;DHT22;8283;48.504;13.734;2023-03-14T07:36:09;13.10;68.40
16347;DHT22;8283;48.504;13.734;2023-03-14T07:38:55;13.10;68.40
16347;DHT22;8283;48.504;13.734;2023-03-14T07:41:58;13.20;68.40
16347;DHT22;8283;48.504;13.734;2023-03-14T07:44:42;13.20;68.50
16347;DHT22;8283;48.504;13.734;2023-03-14T07:47:27;13.20;68.80
16347;DHT22;8283;48.504;13.734;2023-03-14T07:50:13;13.20;69.10
16347;DHT22;8283;48.504;13.734;2023-03-14T07:52:58;13.30;69.30
16347;DHT22;8283;48.504;13.734;2023-03-14T07:55:43;13.40;69.20
16347;DHT22;8283;48.504;13.734;2023-03-14T07:58:27;13.40;69.10
16347;DHT22;8283;48.504;13.734;2023-03-14T08:01:12;13.50;69.20
16347;DHT22;8283;48.504;13.734;2023-03-14T08:03:56;13.50;69.20
16347;DHT22;8283;48.504;13.734;2023-03-14T08:06:41;13.60;69.40
16347;DHT22;8283;48.504;13.734;2023-03-14T08:09:26;13.80;69.60
16347;DHT22;8283;48.504;13.734;2023-03-14T08:12:10;13.70;69.50
16347;DHT22;8283;48.504;13.734;2023-03-14T08:14:55;13.80;69.70
16347;DHT22;8283;48.504;13.734;2023-03-14T08:17:39;13.90;69.70
16347;DHT22;8283;48.504;13.734;2023-03-14T08:20:26;13.90;69.80
16347;DHT22;8283;48.504;13.734;2023-03-14T08:23:10;14.10;70.00
16347;DHT22;8283;48.504;13.734;2023-03-14T08:25:55;14.10;69.80
16347;DHT22;8283;48.504;13.734;2023-03-14T08:28:39;14.20;69.90
16347;DHT22;8283;48.504;13.734;2023-03-14T08:31:24;14.20;69.90
16347;DHT22;8283;48.504;13.734;2023-03-14T08:34:10;14.30;69.80
16347;DHT22;8283;48.504;13.734;2023-03-14T08:36:54;14.40;69.90
16347;DHT22;8283;48.504;13.734;2023-03-14T08:39:40;14.50;69.80
16347;DHT22;8283;48.504;13.734;2023-03-14T08:42:25;14.50;69.60
16347;DHT22;8283;48.504;13.734;2023-03-14T08:45:11;14.60;69.50
16347;DHT22;8283;48.504;13.734;2023-03-14T08:47:57;14.60;69.50
16347;DHT22;8283;48.504;13.734;2023-03-14T08:50:42;14.60;70.00
16347;DHT22;8283;48.504;13.734;2023-03-14T08:53:26;14.60;69.10
16347;DHT22;8283;48.504;13.734;2023-03-14T08:56:11;14.70;69.90
16347;DHT22;8283;48.504;13.734;2023-03-14T08:58:56;14.70;69.20
16347;DHT22;8283;48.504;13.734;2023-03-14T09:01:40;14.70;69.30
16347;DHT22;8283;48.504;13.734;2023-03-14T09:04:25;14.70;69.10
16347;DHT22;8283;48.504;13.734;2023-03-14T09:07:10;14.80;69.10
16347;DHT22;8283;48.504;13.734;2023-03-14T09:09:54;14.80;69.00
16347;DHT22;8283;48.504;13.734;2023-03-14T09:12:38;14.80;68.90
16347;DHT22;8283;48.504;13.734;2023-03-14T09:15:22;14.80;68.70
16347;DHT22;8283;48.504;13.734;2023-03-14T09:18:06;14.80;68.60
16347;DHT22;8283;48.504;13.734;2023-03-14T09:20:51;14.70;68.60
16347;DHT22;8283;48.504;13.734;2023-03-14T09:23:35;14.70;68.60
16347;DHT22;8283;48.504;13.734;2023-03-14T09:26:19;14.90;68.80
16347;DHT22;8283;48.504;13.734;2023-03-14T09:29:04;14.70;68.90
16347;DHT22;8283;48.504;13.734;2023-03-14T09:31:49;14.70;69.10
16347;DHT22;8283;48.504;13.734;2023-03-14T09:34:34;14.70;69.40
16347;DHT22;8283;48.504;13.734;2023-03-14T09:37:18;14.80;69.60
16347;DHT22;8283;48.504;13.734;2023-03-14T09:40:04;14.70;69.50
16347;DHT22;8283;48.504;13.734;2023-03-14T09:42:55;14.70;69.40
16347;DHT22;8283;48.504;13.734;2023-03-14T09:45:41;14.70;69.50
16347;DHT22;8283;48.504;13.734;2023-03-14T09:48:30;14.80;69.70
16347;DHT22;8283;48.504;13.734;2023-03-14T09:51:17;14.80;69.80
16347;DHT22;8283;48.504;13.734;2023-03-14T09:54:04;14.80;70.40
16347;DHT22;8283;48.504;13.734;2023-03-14T09:56:49;14.80;69.80
16347;DHT22;8283;48.504;13.734;2023-03-14T09:59:35;14.80;70.60
16347;DHT22;8283;48.504;13.734;2023-03-14T10:02:22;14.90;70.20
16347;DHT22;8283;48.504;13.734;2023-03-14T10:05:16;14.90;70.30
16347;DHT22;8283;48.504;13.734;2023-03-14T10:08:01;15.00;71.00
16347;DHT22;8283;48.504;13.734;2023-03-14T10:10:45;15.00;70.30
16347;DHT22;8283;48.504;13.734;2023-03-14T10:13:30;15.10;70.50
16347;DHT22;8283;48.504;13.734;2023-03-14T10:16:14;15.20;70.90
16347;DHT22;8283;48.504;13.734;2023-03-14T10:19:17;15.30;71.10
16347;DHT22;8283;48.504;13.734;2023-03-14T10:22:03;15.40;72.10
16347;DHT22;8283;48.504;13.734;2023-03-14T10:24:54;15.50;71.60
16347;DHT22;8283;48.504;13.734;2023-03-14T10:27:41;15.60;72.00
16347;DHT22;8283;48.504;13.734;2023-03-14T10:30:30;15.80;71.50
16347;DHT22;8283;48.504;13.734;2023-03-14T10:33:21;15.90;71.40
16347;DHT22;8283;48.504;13.734;2023-03-14T10:36:19;16.10;71.50
16347;DHT22;8283;48.504;13.734;2023-03-14T10:39:26;16.20;71.70
16347;DHT22;8283;48.504;13.734;2023-03-14T10:42:21;16.30;72.00
16347;DHT22;8283;48.504;13.734;2023-03-14T10:48:21;16.60;71.90
16347;DHT22;8283;48.504;13.734;2023-03-14T10:51:29;16.80;72.00
16347;DHT22;8283;48.504;13.734;2023-03-14T10:54:20;17.00;71.70
16347;DHT22;8283;48.504;13.734;2023-03-14T10:57:05;16.60;71.20
16347;DHT22;8283;48.504;13.734;2023-03-14T10:59:50;17.30;71.30
16347;DHT22;8283;48.504;13.734;2023-03-14T11:03:04;17.40;70.50
16347;DHT22;8283;48.504;13.734;2023-03-14T11:05:57;17.60;69.50
16347;DHT22;8283;48.504;13.734;2023-03-14T11:08:51;17.60;69.80
16347;DHT22;8283;48.504;13.734;2023-03-14T11:11:39;17.70;70.10
16347;DHT22;8283;48.504;13.734;2023-03-14T11:14:34;18.00;70.20
16347;DHT22;8283;48.504;13.734;2023-03-14T11:17:30;17.90;70.00
16347;DHT22;8283;48.504;13.734;2023-03-14T11:34:58;18.50;68.70
16347;DHT22;8283;48.504;13.734;2023-03-14T11:38:49;18.60;68.30
16347;DHT22;8283;48.504;13.734;2023-03-14T11:41:01;18.70;67.80
16347;DHT22;8283;48.504;13.734;2023-03-14T11:43:54;18.70;67.90
16347;DHT22;8283;48.504;13.734;2023-03-14T11:46:43;18.70;67.30
16347;DHT22;8283;48.504;13.734;2023-03-14T11:55:21;18.80;66.80
16347;DHT22;8283;48.504;13.734;2023-03-14T11:58:26;18.80;66.40
16347;DHT22;8283;48.504;13.734;2023-03-14T12:01:14;18.80;66.70
16347;DHT22;8283;48.504;13.734;2023-03-14T12:04:39;18.80;66.50
16347;DHT22;8283;48.504;13.734;2023-03-14T12:07:39;18.70;66.10
16347;DHT22;8283;48.504;13.734;2023-03-14T12:10:28;18.70;65.70
16347;DHT22;8283;48.504;13.734;2023-03-14T12:13:14;18.60;65.80
16347;DHT22;8283;48.504;13.734;2023-03-14T12:16:00;18.60;65.60
16347;DHT22;8283;48.504;13.734;2023-03-14T12:18:47;18.50;65.30
16347;DHT22;8283;48.504;13.734;2023-03-14T12:22:08;18.40;65.20
16347;DHT22;8283;48.504;13.734;2023-03-14T12:25:02;18.30;63.90
16347;DHT22;8283;48.504;13.734;2023-03-14T12:30:40;18.10;64.10
16347;DHT22;8283;48.504;13.734;2023-03-14T12:33:30;18.00;64.30
16347;DHT22;8283;48.504;13.734;2023-03-14T12:36:31;17.90;64.10
16347;DHT22;8283;48.504;13.734;2023-03-14T12:39:50;17.80;64.00
16347;DHT22;8283;48.504;13.734;2023-03-14T12:43:00;17.70;64.20
16347;DHT22;8283;48.504;13.734;2023-03-14T12:49:05;17.60;64.50
16347;DHT22;8283;48.504;13.734;2023-03-14T12:51:59;17.60;64.80
16347;DHT22;8283;48.504;13.734;2023-03-14T12:54:48;17.60;64.80
16347;DHT22;8283;48.504;13.734;2023-03-14T13:00:41;17.60;65.20
16347;DHT22;8283;48.504;13.734;2023-03-14T13:03:38;17.60;65.30
16347;DHT22;8283;48.504;13.734;2023-03-14T13:06:52;17.60;64.80
16347;DHT22;8283;48.504;13.734;2023-03-14T13:12:56;17.60;64.90
16347;DHT22;8283;48.504;13.734;2023-03-14T13:15:43;17.60;65.10
16347;DHT22;8283;48.504;13.734;2023-03-14T13:18:44;17.60;64.90
16347;DHT22;8283;48.504;13.734;2023-03-14T13:21:34;17.60;64.60
16347;DHT22;8283;48.504;13.734;2023-03-14T13:24:24;17.60;64.70
16347;DHT22;8283;48.504;13.734;2023-03-14T13:27:17;17.60;64.60
16347;DHT22;8283;48.504;13.734;2023-03-14T13:30:25;17.60;64.50
16347;DHT22;8283;48.504;13.734;2023-03-14T13:33:18;17.50;64.40
16347;DHT22;8283;48.504;13.734;2023-03-14T13:36:04;17.70;64.60
16347;DHT22;8283;48.504;13.734;2023-03-14T13:38:56;17.50;64.60
16347;DHT22;8283;48.504;13.734;2023-03-14T13:41:42;17.50;64.50
16347;DHT22;8283;48.504;13.734;2023-03-14T13:44:36;17.40;64.80
16347;DHT22;8283;48.504;13.734;2023-03-14T13:47:23;17.40;65.10
16347;DHT22;8283;48.504;13.734;2023-03-14T13:50:17;17.40;65.40
16347;DHT22;8283;48.504;13.734;2023-03-14T13:53:02;17.40;65.40
16347;DHT22;8283;48.504;13.734;2023-03-14T13:55:47;17.50;65.90
16347;DHT22;8283;48.504;13.734;2023-03-14T13:58:31;17.50;65.90
16347;DHT22;8283;48.504;13.734;2023-03-14T14:01:24;17.60;65.80
16347;DHT22;8283;48.504;13.734;2023-03-14T14:04:15;17.60;65.60
16347;DHT22;8283;48.504;13.734;2023-03-14T14:07:00;17.70;65.70
16347;DHT22;8283;48.504;13.734;2023-03-14T14:09:51;17.80;66.40
16347;DHT22;8283;48.504;13.734;2023-03-14T14:15:39;18.00;66.30
16347;DHT22;8283;48.504;13.734;2023-03-14T14:18:26;18.20;66.40
16347;DHT22;8283;48.504;13.734;2023-03-14T14:21:13;18.30;66.50
16347;DHT22;8283;48.504;13.734;2023-03-14T14:23:59;18.60;67.40
16347;DHT22;8283;48.504;13.734;2023-03-14T14:26:51;18.70;66.60
16347;DHT22;8283;48.504;13.734;2023-03-14T14:29:36;18.90;65.30
16347;DHT22;8283;48.504;13.734;2023-03-14T14:32:20;19.10;65.70
16347;DHT22;8283;48.504;13.734;2023-03-14T14:35:06;19.30;65.10
16347;DHT22;8283;48.504;13.734;2023-03-14T14:37:51;19.20;64.20
16347;DHT22;8283;48.504;13.734;2023-03-14T14:40:44;19.30;63.70
16347;DHT22;8283;48.504;13.734;2023-03-14T14:43:35;19.20;62.70
16347;DHT22;8283;48.504;13.734;2023-03-14T14:46:21;19.20;62.80
16347;DHT22;8283;48.504;13.734;2023-03-14T14:49:15;19.20;63.10
16347;DHT22;8283;48.504;13.734;2023-03-14T14:52:12;19.10;62.70
16347;DHT22;8283;48.504;13.734;2023-03-14T14:54:59;19.00;63.50
16347;DHT22;8283;48.504;13.734;2023-03-14T14:57:52;18.90;63.00
16347;DHT22;8283;48.504;13.734;2023-03-14T15:00:39;18.90;62.70
16347;DHT22;8283;48.504;13.734;2023-03-14T15:03:27;18.90;63.20
16347;DHT22;8283;48.504;13.734;2023-03-14T15:06:14;19.00;63.40
16347;DHT22;8283;48.504;13.734;2023-03-14T15:08:59;18.90;63.40
16347;DHT22;8283;48.504;13.734;2023-03-14T15:11:44;18.90;63.20
16347;DHT22;8283;48.504;13.734;2023-03-14T15:14:28;18.90;63.00
16347;DHT22;8283;48.504;13.734;2023-03-14T15:17:13;18.90;63.40
16347;DHT22;8283;48.504;13.734;2023-03-14T15:19:58;18.80;63.40
16347;DHT22;8283;48.504;13.734;2023-03-14T15:22:43;18.80;62.40
16347;DHT22;8283;48.504;13.734;2023-03-14T15:25:27;18.70;62.30
16347;DHT22;8283;48.504;13.734;2023-03-14T15:28:20;18.70;62.20
16347;DHT22;8283;48.504;13.734;2023-03-14T15:31:04;18.60;61.90
16347;DHT22;8283;48.504;13.734;2023-03-14T15:33:49;18.50;61.90
16347;DHT22;8283;48.504;13.734;2023-03-14T15:36:34;18.50;61.80
16347;DHT22;8283;48.504;13.734;2023-03-14T15:39:19;18.30;61.80
16347;DHT22;8283;48.504;13.734;2023-03-14T15:42:04;18.30;61.80
16347;DHT22;8283;48.504;13.734;2023-03-14T15:44:48;18.20;61.80
16347;DHT22;8283;48.504;13.734;2023-03-14T15:47:32;18.10;61.70
16347;DHT22;8283;48.504;13.734;2023-03-14T15:50:17;18.00;61.90
16347;DHT22;8283;48.504;13.734;2023-03-14T15:53:03;17.90;61.80
16347;DHT22;8283;48.504;13.734;2023-03-14T15:55:47;17.90;61.90
16347;DHT22;8283;48.504;13.734;2023-03-14T15:58:32;17.70;61.90
16347;DHT22;8283;48.504;13.734;2023-03-14T16:01:18;17.60;62.00
16347;DHT22;8283;48.504;13.734;2023-03-14T16:04:03;17.50;62.00
16347;DHT22;8283;48.504;13.734;2023-03-14T16:06:47;17.40;62.10
16347;DHT22;8283;48.504;13.734;2023-03-14T16:09:31;17.40;62.20
16347;DHT22;8283;48.504;13.734;2023-03-14T16:12:16;17.30;62.20
16347;DHT22;8283;48.504;13.734;2023-03-14T16:15:01;17.30;62.40
16347;DHT22;8283;48.504;13.734;2023-03-14T16:17:45;17.10;62.50
16347;DHT22;8283;48.504;13.734;2023-03-14T16:20:29;17.10;62.80
16347;DHT22;8283;48.504;13.734;2023-03-14T16:23:35;17.00;62.80
16347;DHT22;8283;48.504;13.734;2023-03-14T16:26:19;16.80;63.10
16347;DHT22;8283;48.504;13.734;2023-03-14T16:29:04;16.60;63.40
16347;DHT22;8283;48.504;13.734;2023-03-14T16:31:49;16.50;63.50
16347;DHT22;8283;48.504;13.734;2023-03-14T16:34:33;16.30;63.70
16347;DHT22;8283;48.504;13.734;2023-03-14T16:37:17;16.20;64.50
16347;DHT22;8283;48.504;13.734;2023-03-14T16:40:05;16.10;64.50
16347;DHT22;8283;48.504;13.734;2023-03-14T16:42:49;16.00;64.70
16347;DHT22;8283;48.504;13.734;2023-03-14T16:45:36;15.90;65.00
16347;DHT22;8283;48.504;13.734;2023-03-14T16:48:21;15.80;65.00
16347;DHT22;8283;48.504;13.734;2023-03-14T16:51:05;15.70;64.90
16347;DHT22;8283;48.504;13.734;2023-03-14T16:53:49;15.70;65.10
16347;DHT22;8283;48.504;13.734;2023-03-14T16:56:34;15.60;65.10
16347;DHT22;8283;48.504;13.734;2023-03-14T16:59:19;15.60;65.00
16347;DHT22;8283;48.504;13.734;2023-03-14T17:02:04;15.60;65.10
16347;DHT22;8283;48.504;13.734;2023-03-14T17:04:48;15.60;65.10
16347;DHT22;8283;48.504;13.734;2023-03-14T17:07:32;15.50;65.10
16347;DHT22;8283;48.504;13.734;2023-03-14T17:10:17;15.50;65.10
16347;DHT22;8283;48.504;13.734;2023-03-14T17:13:01;15.50;65.30
16347;DHT22;8283;48.504;13.734;2023-03-14T17:15:46;15.40;65.10
16347;DHT22;8283;48.504;13.734;2023-03-14T17:18:35;15.40;65.20
16347;DHT22;8283;48.504;13.734;2023-03-14T17:21:20;15.40;65.30
16347;DHT22;8283;48.504;13.734;2023-03-14T17:24:05;15.30;65.10
16347;DHT22;8283;48.504;13.734;2023-03-14T17:26:49;15.20;65.00
16347;DHT22;8283;48.504;13.734;2023-03-14T17:29:33;15.20;65.20
16347;DHT22;8283;48.504;13.734;2023-03-14T17:32:18;15.20;65.20
16347;DHT22;8283;48.504;13.734;2023-03-14T17:35:04;15.20;65.20
16347;DHT22;8283;48.504;13.734;2023-03-14T17:37:48;15.10;65.20
16347;DHT22;8283;48.504;13.734;2023-03-14T17:40:33;15.10;65.10
16347;DHT22;8283;48.504;13.734;2023-03-14T17:43:17;15.10;65.10
16347;DHT22;8283;48.504;13.734;2023-03-14T17:46:04;15.00;65.60
16347;DHT22;8283;48.504;13.734;2023-03-14T17:48:52;15.00;65.50
16347;DHT22;8283;48.504;13.734;2023-03-14T17:51:36;14.90;65.50
16347;DHT22;8283;48.504;13.734;2023-03-14T17:54:20;14.80;65.10
16347;DHT22;8283;48.504;13.734;2023-03-14T17:57:05;14.70;65.00
16347;DHT22;8283;48.504;13.734;2023-03-14T17:59:50;14.60;64.90
16347;DHT22;8283;48.504;13.734;2023-03-14T18:02:36;14.60;65.20
16347;DHT22;8283;48.504;13.734;2023-03-14T18:05:20;14.50;64.60
16347;DHT22;8283;48.504;13.734;2023-03-14T18:08:05;14.40;64.70
16347;DHT22;8283;48.504;13.734;2023-03-14T18:10:52;14.30;64.80
16347;DHT22;8283;48.504;13.734;2023-03-14T18:13:37;14.30;65.00
16347;DHT22;8283;48.504;13.734;2023-03-14T18:16:22;14.30;64.90
16347;DHT22;8283;48.504;13.734;2023-03-14T18:19:07;14.30;64.50
16347;DHT22;8283;48.504;13.734;2023-03-14T18:21:51;14.20;64.20
16347;DHT22;8283;48.504;13.734;2023-03-14T18:24:36;14.20;64.40